createdAt,value
2018-03-19T00:00:44.944Z,30.99
2018-03-19T00:03:13.978Z,31.17
2018-03-19T00:05:42.886Z,31.05
2018-03-19T00:08:11.439Z,31.16
2018-03-19T00:10:40.139Z,31.77
2018-03-19T00:13:09.003Z,31.28
2018-03-19T00:15:37.966Z,30.64
2018-03-19T00:18:07.043Z,31.22
2018-03-19T00:20:36.086Z,31.78
2018-03-19T00:23:05.254Z,31.64
2018-03-19T00:25:33.927Z,31.48
2018-03-19T00:28:03.258Z,31.05
2018-03-19T00:30:31.945Z,31.21
2018-03-19T00:33:01.384Z,31.44
2018-03-19T00:35:29.938Z,31.36
2018-03-19T00:37:58.396Z,31.50
2018-03-19T00:40:27.801Z,31.17
2018-03-19T00:42:56.758Z,31.27
2018-03-19T00:45:25.767Z,31.57
2018-03-19T00:47:54.517Z,31.91
2018-03-19T00:50:23.660Z,31.53
2018-03-19T00:52:52.365Z,32.23
2018-03-19T00:55:21.749Z,32.25
2018-03-19T00:57:50.370Z,32.03
2018-03-19T01:00:19.093Z,32.25
2018-03-19T01:02:47.843Z,32.55
2018-03-19T01:05:16.740Z,32.64
2018-03-19T01:07:45.382Z,32.22
2018-03-19T01:10:14.810Z,32.28
2018-03-19T01:12:43.568Z,32.36
2018-03-19T01:15:12.374Z,32.56
2018-03-19T01:17:41.269Z,32.77
2018-03-19T01:20:10.645Z,32.89
2018-03-19T01:22:39.213Z,33.50
2018-03-19T01:25:08.074Z,33.60
2018-03-19T01:27:36.735Z,33.68
2018-03-19T01:30:05.311Z,34.24
2018-03-19T01:32:34.369Z,34.18
2018-03-19T01:35:03.042Z,34.00
2018-03-19T01:37:31.733Z,33.93
2018-03-19T01:40:00.541Z,34.16
2018-03-19T01:42:29.266Z,34.28
2018-03-19T01:44:58.319Z,34.97
2018-03-19T01:47:27.376Z,35.05
2018-03-19T01:49:56.199Z,34.32
2018-03-19T01:55:33.855Z,34.96
2018-03-19T01:58:02.418Z,35.01
2018-03-19T02:00:30.812Z,35.51
2018-03-19T02:02:59.617Z,35.57
2018-03-19T02:05:28.382Z,35.85
2018-03-19T02:07:56.875Z,35.35
2018-03-19T02:10:25.649Z,35.76
2018-03-19T02:12:54.041Z,35.52
2018-03-19T02:15:22.417Z,35.91
2018-03-19T02:17:50.820Z,35.62
2018-03-19T02:20:19.197Z,36.41
2018-03-19T02:22:47.601Z,35.37
2018-03-19T02:25:16.334Z,35.95
2018-03-19T02:27:44.734Z,36.21
2018-03-19T02:30:13.506Z,36.24
2018-03-19T02:32:41.932Z,36.31
2018-03-19T02:35:10.309Z,36.97
2018-03-19T02:37:38.717Z,37.24
2018-03-19T02:40:07.179Z,36.51
2018-03-19T02:42:35.609Z,36.24
2018-03-19T02:45:04.440Z,36.39
2018-03-19T02:47:32.805Z,36.64
2018-03-19T02:50:01.176Z,37.09
2018-03-19T02:52:29.564Z,37.32
2018-03-19T02:54:57.941Z,37.40
2018-03-19T02:57:26.768Z,37.45
2018-03-19T02:59:56.938Z,37.40
2018-03-19T03:02:25.749Z,37.28
2018-03-19T03:04:54.115Z,37.15
2018-03-19T03:07:22.498Z,37.23
2018-03-19T03:09:50.930Z,38.25
2018-03-19T03:12:19.290Z,37.09
2018-03-19T03:14:47.645Z,37.88
2018-03-19T03:17:16.154Z,37.88
2018-03-19T03:19:44.775Z,37.62
2018-03-19T03:22:13.196Z,38.03
2018-03-19T03:24:41.557Z,37.64
2018-03-19T03:27:09.935Z,37.69
2018-03-19T03:29:38.280Z,37.74
2018-03-19T03:32:06.673Z,38.48
2018-03-19T03:34:35.113Z,37.96
2018-03-19T03:37:03.490Z,37.80
2018-03-19T03:39:31.858Z,38.08
2018-03-19T03:42:00.235Z,38.51
2018-03-19T03:44:28.617Z,38.05
2018-03-19T03:46:57.002Z,38.11
2018-03-19T03:49:25.408Z,38.47
2018-03-19T03:51:53.852Z,38.92
2018-03-19T03:54:22.241Z,39.11
2018-03-19T03:56:50.846Z,38.73
2018-03-19T03:59:19.221Z,38.64
2018-03-19T04:01:47.582Z,38.55
2018-03-19T04:04:15.959Z,38.54
2018-03-19T04:06:44.353Z,39.46
2018-03-19T04:09:12.752Z,39.03
2018-03-19T04:11:41.180Z,38.98
2018-03-19T04:14:09.600Z,39.53
2018-03-19T04:16:38.391Z,39.37
2018-03-19T04:19:06.776Z,39.02
2018-03-19T04:21:35.149Z,39.15
2018-03-19T04:24:03.552Z,39.48
2018-03-19T04:26:31.948Z,39.20
2018-03-19T04:29:00.336Z,39.52
2018-03-19T04:31:28.728Z,38.86
2018-03-19T04:33:57.112Z,38.95
2018-03-19T04:36:25.530Z,38.59
2018-03-19T04:38:53.930Z,39.59
2018-03-19T04:41:22.326Z,39.74
2018-03-19T04:43:51.004Z,39.22
2018-03-19T04:46:20.744Z,38.91
2018-03-19T04:48:49.134Z,39.47
2018-03-19T04:51:17.516Z,40.37
2018-03-19T04:56:20.789Z,39.52
2018-03-19T04:58:49.187Z,40.33
2018-03-19T05:01:17.546Z,40.16
2018-03-19T05:03:46.414Z,40.25
2018-03-19T05:06:15.223Z,39.63
2018-03-19T05:08:43.735Z,40.51
2018-03-19T05:11:12.114Z,40.15
2018-03-19T05:13:40.488Z,39.49
2018-03-19T05:16:08.910Z,40.07
2018-03-19T05:18:37.438Z,40.43
2018-03-19T05:21:05.929Z,40.15
2018-03-19T05:23:34.375Z,40.89
2018-03-19T05:26:02.757Z,40.44
2018-03-19T05:28:31.145Z,40.47
2018-03-19T05:30:59.560Z,40.27
2018-03-19T05:33:28.821Z,40.42
2018-03-19T05:35:57.196Z,40.73
2018-03-19T05:38:25.985Z,40.85
2018-03-19T05:40:54.372Z,41.37
2018-03-19T05:43:22.759Z,39.66
2018-03-19T05:45:51.130Z,36.03
2018-03-19T05:48:19.550Z,34.41
2018-03-19T05:50:48.016Z,32.74
2018-03-19T05:53:16.416Z,31.29
2018-03-19T05:55:44.830Z,30.90
2018-03-19T05:58:13.292Z,29.64
2018-03-19T06:00:41.770Z,29.45
2018-03-19T06:03:10.127Z,29.00
2018-03-19T06:05:38.556Z,28.21
2018-03-19T06:08:06.944Z,26.94
2018-03-19T06:10:35.376Z,25.80
2018-03-19T06:13:03.808Z,25.44
2018-03-19T06:15:32.211Z,24.51
2018-03-19T06:18:00.575Z,23.14
2018-03-19T06:20:29.025Z,22.59
2018-03-19T06:22:57.403Z,21.71
2018-03-19T06:25:26.340Z,21.01
2018-03-19T06:27:54.752Z,20.14
2018-03-19T06:30:23.168Z,19.66
2018-03-19T06:32:51.644Z,19.92
2018-03-19T06:35:20.106Z,19.94
2018-03-19T06:40:23.193Z,19.05
2018-03-19T06:42:51.677Z,19.83
2018-03-19T06:45:20.189Z,18.93
2018-03-19T06:47:48.741Z,18.41
2018-03-19T06:50:17.351Z,18.05
2018-03-19T06:52:46.098Z,17.83
2018-03-19T06:55:14.600Z,17.71
2018-03-19T06:57:43.202Z,17.88
2018-03-19T07:00:12.132Z,17.42
2018-03-19T07:02:40.889Z,16.46
2018-03-19T07:05:09.285Z,16.73
2018-03-19T07:07:37.704Z,16.40
2018-03-19T07:10:06.230Z,16.13
2018-03-19T07:12:34.887Z,15.12
2018-03-19T07:15:03.321Z,15.08
2018-03-19T07:17:31.849Z,16.12
2018-03-19T07:20:00.569Z,15.84
2018-03-19T07:22:29.047Z,14.88
2018-03-19T07:24:57.544Z,15.71
2018-03-19T07:27:25.999Z,15.96
2018-03-19T07:29:54.682Z,15.01
2018-03-19T07:32:24.216Z,14.55
2018-03-19T07:34:52.797Z,14.89
2018-03-19T07:37:21.277Z,15.84
2018-03-19T07:39:49.711Z,15.28
2018-03-19T07:42:18.142Z,14.93
2018-03-19T07:44:46.658Z,15.54
2018-03-19T07:47:15.087Z,14.56
2018-03-19T07:49:43.604Z,14.68
2018-03-19T07:52:12.265Z,14.92
2018-03-19T07:54:40.739Z,14.44
2018-03-19T07:57:09.153Z,13.64
2018-03-19T07:59:37.886Z,13.74
2018-03-19T08:02:06.365Z,14.31
2018-03-19T08:04:34.865Z,13.71
2018-03-19T08:07:04.344Z,13.88
2018-03-19T08:09:32.835Z,14.17
2018-03-19T08:12:01.384Z,13.41
2018-03-19T08:14:30.079Z,13.30
2018-03-19T08:16:58.553Z,13.65
2018-03-19T08:19:27.780Z,14.17
2018-03-19T08:21:56.244Z,13.27
2018-03-19T08:24:24.840Z,13.31
2018-03-19T08:27:06.436Z,13.88
2018-03-19T08:29:34.956Z,14.16
2018-03-19T08:32:03.359Z,13.83
2018-03-19T08:34:31.817Z,14.50
2018-03-19T08:37:00.352Z,13.84
2018-03-19T08:39:28.826Z,13.37
2018-03-19T08:41:57.327Z,13.02
2018-03-19T08:44:25.718Z,13.17
2018-03-19T08:46:54.387Z,13.06
2018-03-19T08:49:22.898Z,14.03
2018-03-19T08:51:51.427Z,14.17
2018-03-19T08:54:21.145Z,14.32
2018-03-19T08:56:49.553Z,13.40
2018-03-19T08:59:18.283Z,13.62
2018-03-19T09:01:46.724Z,13.87
2018-03-19T09:04:15.354Z,13.96
2018-03-19T09:06:44.268Z,13.85
2018-03-19T09:09:12.781Z,13.94
2018-03-19T09:11:41.224Z,14.17
2018-03-19T09:14:09.877Z,13.40
2018-03-19T09:16:38.343Z,13.36
2018-03-19T09:19:06.837Z,14.50
2018-03-19T09:21:35.251Z,14.19
2018-03-19T09:24:03.669Z,13.65
2018-03-19T09:26:32.052Z,13.39
2018-03-19T09:29:00.476Z,13.42
2018-03-19T09:31:28.947Z,13.30
2018-03-19T09:33:57.371Z,13.54
2018-03-19T09:36:25.777Z,13.69
2018-03-19T09:38:54.218Z,13.34
2018-03-19T09:41:22.658Z,13.48
2018-03-19T09:43:51.325Z,13.67
2018-03-19T09:46:19.814Z,13.06
2018-03-19T09:48:49.041Z,12.75
2018-03-19T09:51:20.228Z,12.66
2018-03-19T09:53:48.719Z,12.74
2018-03-19T09:56:17.149Z,13.08
2018-03-19T09:58:45.589Z,13.30
2018-03-19T10:01:14.041Z,13.70
2018-03-19T10:03:42.474Z,13.66
2018-03-19T10:06:10.924Z,13.88
2018-03-19T10:08:39.522Z,14.10
2018-03-19T10:11:07.996Z,14.72
2018-03-19T10:13:36.720Z,14.59
2018-03-19T10:16:05.478Z,14.62
2018-03-19T10:18:34.506Z,14.91
2018-03-19T10:21:03.004Z,14.46
2018-03-19T10:23:31.448Z,13.41
2018-03-19T10:25:59.864Z,12.99
2018-03-19T10:28:28.276Z,13.10
2018-03-19T10:30:57.264Z,13.18
2018-03-19T10:33:25.711Z,13.79
2018-03-19T10:35:54.166Z,13.96
2018-03-19T10:38:22.709Z,13.57
2018-03-19T10:40:51.340Z,13.59
2018-03-19T10:43:20.166Z,14.72
2018-03-19T10:45:48.619Z,15.33
2018-03-19T10:48:17.168Z,14.09
2018-03-19T10:50:45.564Z,13.93
2018-03-19T10:53:14.198Z,13.29
2018-03-19T10:55:42.844Z,14.68
2018-03-19T10:58:11.545Z,15.56
2018-03-19T11:00:39.949Z,15.02
2018-03-19T11:03:08.844Z,14.72
2018-03-19T11:05:42.829Z,14.72
2018-03-19T11:08:11.314Z,15.41
2018-03-19T11:10:39.774Z,16.60
2018-03-19T11:13:08.211Z,17.12
2018-03-19T11:15:36.638Z,16.81
2018-03-19T11:18:05.295Z,17.58
2018-03-19T11:20:33.792Z,18.00
2018-03-19T11:23:02.416Z,17.84
2018-03-19T11:25:31.099Z,18.14
2018-03-19T11:27:59.567Z,19.96
2018-03-19T11:30:28.049Z,20.45
2018-03-19T11:32:56.460Z,20.27
2018-03-19T11:35:25.049Z,21.01
2018-03-19T11:37:53.672Z,21.42
2018-03-19T11:40:22.140Z,20.77
2018-03-19T11:42:50.525Z,20.45
2018-03-19T11:45:18.974Z,21.12
2018-03-19T11:47:48.249Z,21.89
2018-03-19T11:50:16.630Z,21.85
2018-03-19T11:52:46.422Z,21.29
2018-03-19T11:55:15.124Z,21.48
2018-03-19T11:57:43.503Z,20.97
2018-03-19T12:00:12.113Z,20.95
2018-03-19T12:02:40.491Z,20.53
2018-03-19T12:05:08.898Z,21.10
2018-03-19T12:07:37.602Z,20.92
2018-03-19T12:10:05.990Z,21.28
2018-03-19T12:12:34.656Z,21.18
2018-03-19T12:15:03.101Z,20.72
2018-03-19T12:17:31.588Z,21.21
2018-03-19T12:20:00.809Z,22.17
2018-03-19T12:22:29.316Z,21.64
2018-03-19T12:24:57.810Z,21.56
2018-03-19T12:27:26.272Z,21.86
2018-03-19T12:29:54.882Z,21.83
2018-03-19T12:32:23.425Z,21.67
2018-03-19T12:34:51.939Z,22.54
2018-03-19T12:37:20.371Z,21.34
2018-03-19T12:39:48.751Z,21.79
2018-03-19T12:42:17.388Z,20.58
2018-03-19T12:44:45.814Z,20.28
2018-03-19T12:47:14.242Z,22.11
2018-03-19T12:49:42.802Z,23.63
2018-03-19T12:52:11.295Z,23.36
2018-03-19T12:54:40.898Z,22.84
2018-03-19T12:57:09.337Z,22.83
2018-03-19T12:59:37.725Z,22.99
2018-03-19T13:02:06.536Z,23.54
2018-03-19T13:04:34.998Z,24.36
2018-03-19T13:07:03.975Z,24.04
2018-03-19T13:09:32.631Z,22.95
2018-03-19T13:12:01.389Z,22.42
2018-03-19T13:14:29.843Z,22.95
2018-03-19T13:16:58.318Z,23.60
2018-03-19T13:19:27.185Z,23.55
2018-03-19T13:21:56.128Z,23.54
2018-03-19T13:24:24.936Z,22.98
2018-03-19T13:26:53.658Z,22.85
2018-03-19T13:29:22.098Z,23.19
2018-03-19T13:31:50.578Z,23.31
2018-03-19T13:34:19.304Z,23.17
2018-03-19T13:36:47.996Z,23.49
2018-03-19T13:39:16.381Z,23.09
2018-03-19T13:41:44.833Z,22.77
2018-03-19T13:44:13.211Z,22.93
2018-03-19T13:46:41.620Z,22.58
2018-03-19T13:49:10.345Z,22.25
2018-03-19T13:51:39.004Z,22.46
2018-03-19T13:54:07.415Z,22.21
2018-03-19T13:56:36.059Z,21.60
2018-03-19T13:59:04.477Z,21.98
2018-03-19T14:01:32.964Z,22.09
2018-03-19T14:04:01.340Z,21.78
2018-03-19T14:06:30.063Z,21.60
2018-03-19T14:08:58.749Z,21.58
2018-03-19T14:11:27.143Z,21.66
2018-03-19T14:13:55.653Z,22.17
2018-03-19T14:16:24.086Z,22.16
2018-03-19T14:18:52.485Z,21.96
2018-03-19T14:21:20.967Z,22.02
2018-03-19T14:23:49.340Z,22.67
2018-03-19T14:26:17.742Z,22.97
2018-03-19T14:28:46.129Z,22.96
2018-03-19T14:31:14.956Z,23.51
2018-03-19T14:33:43.536Z,23.83
2018-03-19T14:36:11.997Z,23.48
2018-03-19T14:38:40.537Z,23.10
2018-03-19T14:41:08.988Z,22.51
2018-03-19T14:43:37.373Z,21.99
2018-03-19T14:46:06.180Z,21.49
2018-03-19T14:48:34.584Z,21.31
2018-03-19T14:51:03.438Z,22.09
2018-03-19T14:53:32.050Z,22.43
2018-03-19T14:56:00.452Z,22.26
2018-03-19T14:58:29.484Z,22.51
2018-03-19T15:00:57.989Z,23.78
2018-03-19T15:03:26.681Z,23.41
2018-03-19T15:05:55.104Z,23.42
2018-03-19T15:08:23.621Z,23.07
2018-03-19T15:10:52.234Z,22.38
2018-03-19T15:13:20.901Z,22.48
2018-03-19T15:15:49.267Z,22.54
2018-03-19T15:18:17.651Z,22.46
2018-03-19T15:20:46.148Z,22.07
2018-03-19T15:23:14.520Z,21.60
2018-03-19T15:25:46.666Z,22.54
2018-03-19T15:28:15.090Z,22.45
2018-03-19T15:30:43.525Z,22.16
2018-03-19T15:33:11.905Z,22.04
2018-03-19T15:35:40.323Z,22.43
2018-03-19T15:38:08.774Z,22.32
2018-03-19T15:40:37.240Z,22.36
2018-03-19T15:43:05.692Z,21.80
2018-03-19T15:45:34.105Z,22.04
2018-03-19T15:48:02.513Z,21.82
2018-03-19T15:50:31.008Z,21.97
2018-03-19T15:52:59.428Z,22.09
2018-03-19T15:55:28.040Z,22.18
2018-03-19T15:57:56.470Z,22.29
2018-03-19T16:00:24.882Z,22.37
2018-03-19T16:02:53.635Z,22.36
2018-03-19T16:05:22.152Z,21.97
2018-03-19T16:07:50.604Z,21.49
2018-03-19T16:10:19.368Z,21.83
2018-03-19T16:12:47.807Z,22.56
2018-03-19T16:15:16.327Z,22.75
2018-03-19T16:17:44.849Z,22.79
2018-03-19T16:20:13.433Z,22.60
2018-03-19T16:22:41.870Z,22.28
2018-03-19T16:25:10.281Z,22.29
2018-03-19T16:27:39.232Z,22.99
2018-03-19T16:30:07.869Z,22.75
2018-03-19T16:32:36.339Z,22.92
2018-03-19T16:35:04.720Z,23.06
2018-03-19T16:37:33.292Z,24.15
2018-03-19T16:40:01.822Z,24.32
2018-03-19T16:42:30.340Z,24.44
2018-03-19T16:44:58.987Z,24.33
2018-03-19T16:47:27.588Z,24.19
2018-03-19T16:49:55.954Z,23.91
2018-03-19T16:52:24.456Z,23.82
2018-03-19T16:54:52.974Z,24.20
2018-03-19T16:57:21.443Z,24.17
2018-03-19T16:59:49.812Z,24.11
2018-03-19T17:02:18.286Z,24.05
2018-03-19T17:04:46.679Z,24.96
2018-03-19T17:07:15.161Z,24.39
2018-03-19T17:09:43.612Z,24.82
2018-03-19T17:12:11.983Z,24.10
2018-03-19T17:14:40.415Z,25.25
2018-03-19T17:17:08.923Z,25.16
2018-03-19T17:19:37.404Z,24.88
2018-03-19T17:22:05.811Z,25.08
2018-03-19T17:24:34.324Z,24.96
2018-03-19T17:27:02.699Z,25.20
2018-03-19T17:29:31.305Z,25.23
2018-03-19T17:31:59.984Z,25.28
2018-03-19T17:34:28.343Z,25.57
2018-03-19T17:36:56.740Z,25.61
2018-03-19T17:39:25.176Z,25.60
2018-03-19T17:41:53.648Z,26.06
2018-03-19T17:44:22.164Z,25.65
2018-03-19T17:46:50.628Z,25.95
2018-03-19T17:49:18.993Z,26.62
2018-03-19T17:51:47.458Z,26.47
2018-03-19T17:54:15.900Z,26.20
2018-03-19T17:56:44.743Z,26.52
2018-03-19T17:59:13.157Z,26.58
2018-03-19T18:01:41.805Z,26.02
2018-03-19T18:04:10.235Z,26.41
2018-03-19T18:06:38.678Z,26.18
2018-03-19T18:09:07.077Z,27.09
2018-03-19T18:11:35.581Z,26.83
2018-03-19T18:14:03.977Z,26.39
2018-03-19T18:16:32.369Z,26.66
2018-03-19T18:19:00.875Z,26.43
2018-03-19T18:21:29.280Z,26.51
2018-03-19T18:23:57.733Z,26.69
2018-03-19T18:26:26.124Z,26.57
2018-03-19T18:28:54.534Z,26.70
2018-03-19T18:31:23.105Z,26.57
2018-03-19T18:33:51.835Z,26.97
2018-03-19T18:36:20.218Z,26.75
2018-03-19T18:38:48.738Z,26.71
2018-03-19T18:41:17.271Z,26.77
2018-03-19T18:43:45.747Z,26.71
2018-03-19T18:46:14.160Z,27.19
2018-03-19T18:48:42.750Z,27.23
2018-03-19T18:51:11.112Z,26.96
2018-03-19T18:53:39.688Z,26.85
2018-03-19T18:56:08.070Z,26.91
2018-03-19T18:58:36.705Z,26.96
2018-03-19T19:01:05.177Z,27.06
2018-03-19T19:03:33.620Z,27.51
2018-03-19T19:06:01.991Z,27.71
2018-03-19T19:08:30.425Z,27.28
2018-03-19T19:10:59.063Z,27.46
2018-03-19T19:13:27.468Z,27.01
2018-03-19T19:15:55.934Z,27.00
2018-03-19T19:18:24.326Z,27.43
2018-03-19T19:20:53.240Z,27.58
2018-03-19T19:23:21.662Z,27.30
2018-03-19T19:25:50.143Z,27.57
2018-03-19T19:28:18.579Z,27.75
2018-03-19T19:30:47.318Z,27.55
2018-03-19T19:33:15.680Z,27.99
2018-03-19T19:35:44.040Z,28.17
2018-03-19T19:38:12.657Z,27.93
2018-03-19T19:40:41.392Z,28.26
2018-03-19T19:43:10.066Z,27.98
2018-03-19T19:45:38.461Z,28.36
2018-03-19T19:48:06.883Z,28.71
2018-03-19T19:50:35.388Z,28.93
2018-03-19T19:53:03.872Z,29.33
2018-03-19T19:55:32.368Z,29.36
2018-03-19T19:58:01.032Z,29.47
2018-03-19T20:00:29.531Z,29.51
2018-03-19T20:02:57.948Z,29.73
2018-03-19T20:05:26.318Z,30.03
2018-03-19T20:07:54.715Z,30.02
2018-03-19T20:10:23.705Z,29.90
2018-03-19T20:12:52.415Z,30.03
2018-03-19T20:15:21.293Z,30.04
2018-03-19T20:17:49.863Z,30.75
2018-03-19T20:20:18.331Z,30.83
2018-03-19T20:22:46.756Z,31.13
2018-03-19T20:25:15.386Z,30.88
2018-03-19T20:27:43.759Z,31.03
2018-03-19T20:30:12.147Z,31.23
2018-03-19T20:32:40.567Z,31.29
2018-03-19T20:35:09.136Z,31.52
2018-03-19T20:37:37.615Z,31.73
2018-03-19T20:40:06.063Z,31.93
2018-03-19T20:42:34.905Z,32.02
2018-03-19T20:45:03.668Z,31.91
2018-03-19T20:47:32.042Z,32.24
2018-03-19T20:50:00.864Z,32.14
2018-03-19T20:52:29.313Z,31.94
2018-03-19T20:54:57.836Z,31.77
2018-03-19T20:57:26.328Z,32.03
2018-03-19T20:59:54.946Z,32.72
2018-03-19T21:02:23.337Z,32.07
2018-03-19T21:04:51.768Z,32.18
2018-03-19T21:07:20.142Z,32.35
2018-03-19T21:09:48.542Z,32.30
2018-03-19T21:12:16.925Z,32.80
2018-03-19T21:14:45.469Z,32.37
2018-03-19T21:17:14.056Z,32.17
2018-03-19T21:19:42.464Z,32.43
2018-03-19T21:22:11.073Z,32.71
2018-03-19T21:24:39.497Z,33.04
2018-03-19T21:27:07.920Z,32.81
2018-03-19T21:29:36.683Z,32.82
2018-03-19T21:32:05.159Z,32.74
2018-03-19T21:34:33.593Z,32.78
2018-03-19T21:37:01.957Z,33.04
2018-03-19T21:39:30.374Z,33.26
2018-03-19T21:41:58.952Z,33.01
2018-03-19T21:44:27.426Z,32.86
2018-03-19T21:46:56.124Z,32.94
2018-03-19T21:49:24.735Z,33.11
2018-03-19T21:51:53.189Z,33.18
2018-03-19T21:54:21.807Z,33.26
2018-03-19T21:56:50.626Z,33.22
2018-03-19T21:59:19.028Z,33.08
2018-03-19T22:01:47.578Z,32.97
2018-03-19T22:04:16.064Z,32.99
2018-03-19T22:06:44.717Z,33.80
2018-03-19T22:09:13.351Z,33.17
2018-03-19T22:11:41.815Z,32.98
2018-03-19T22:14:10.268Z,32.20
2018-03-19T22:16:38.726Z,32.50
2018-03-19T22:19:07.148Z,32.22
2018-03-19T22:21:35.726Z,32.20
2018-03-19T22:24:04.378Z,32.23
2018-03-19T22:26:33.106Z,32.23
2018-03-19T22:29:01.579Z,32.35
2018-03-19T22:31:30.188Z,32.42
2018-03-19T22:33:58.576Z,32.28
2018-03-19T22:36:27.244Z,32.51
2018-03-19T22:38:55.910Z,32.54
2018-03-19T22:41:24.393Z,32.76
2018-03-19T22:43:53.067Z,32.92
2018-03-19T22:46:21.523Z,32.84
2018-03-19T22:48:50.270Z,33.00
2018-03-19T22:51:18.872Z,33.08
2018-03-19T22:53:47.335Z,33.30
2018-03-19T22:56:16.015Z,33.31
2018-03-19T22:58:44.680Z,33.41
2018-03-19T23:01:13.268Z,33.29
2018-03-19T23:03:41.691Z,33.40
2018-03-19T23:06:10.180Z,33.34
2018-03-19T23:08:38.694Z,33.44
2018-03-19T23:11:07.090Z,33.61
2018-03-19T23:13:35.849Z,33.56
2018-03-19T23:16:04.251Z,33.47
2018-03-19T23:18:32.681Z,33.63
2018-03-19T23:21:01.252Z,33.63
2018-03-19T23:23:29.872Z,34.01
2018-03-19T23:25:58.384Z,33.96
2018-03-19T23:28:26.851Z,34.45
2018-03-19T23:30:55.277Z,34.17
2018-03-19T23:33:23.663Z,34.41
2018-03-19T23:35:52.208Z,34.52
2018-03-19T23:38:20.754Z,34.60
2018-03-19T23:40:49.160Z,34.60
2018-03-19T23:43:17.566Z,34.59
2018-03-19T23:45:46.011Z,34.87
2018-03-19T23:48:14.447Z,35.17
2018-03-19T23:50:42.921Z,35.18
2018-03-19T23:53:11.388Z,35.37
2018-03-19T23:55:40.728Z,35.54
2018-03-19T23:58:09.584Z,35.48
